No particular awareness of the weather is required.    There are no Weather-warnings


Meteo18 Weather Cam more information Meteo18 Weather Cam


Thunder radar more information blitzortung!


Rain radar more information rain snow radar


Visit our other weather sites:

Template documentation
and downloads

And another site



Weather Underground History page Text

Daily Summary for March 2, 2017 Units:  Both    English   Metric
« Previous Day
Next Day »
Daily Weekly Monthly Yearly Custom
  High: Low: Average:
Temperature: 50.7 °F /  10.4 °C 41.4 °F /  5.2 °C 46.2 °F /  7.9 °C
Dew Point: 48 °F /  8.9 °C 33.3 °F /  0.7 °C 39.4 °F /  4.1 °C
Humidity: 95 % 53 % 78 %
Wind Speed: 16 mph /  25.7 km/h - 3.1 mph /  5 km/h
Wind Gust: 24 mph /  38.6 km/h - -
Wind:- - WSW
Pressure: 30.2 in /  1020.9 hPa 29.9 in /  1011.7 hPa -
Precipitation: 0.12 in /  3.0 mm    
Historical Graphs
 
 
Tabular Data for March 2, 2017
Time Temperature Dew Point Pressure Wind Wind Speed Wind Gust Humidity Rainfall Rate (Hourly)
00:02 49.6 °F /  9.8 °C 48 °F /  8.9 °C 29.9 in /  1011.7 hPa SW 8 mph /  12.9 km/h 22 mph /  35.4 km/h 94 % 0.03 in /  0.8 mm
00:12 49.6 °F /  9.8 °C 48 °F /  8.9 °C 29.9 in /  1011.7 hPa West 11 mph /  17.7 km/h 20 mph /  32.2 km/h 94 % 0.02 in /  0.5 mm
00:17 49.6 °F /  9.8 °C 48 °F /  8.9 °C 29.9 in /  1011.7 hPa WSW 11 mph /  17.7 km/h 20 mph /  32.2 km/h 94 % 0.02 in /  0.5 mm
00:22 49.6 °F /  9.8 °C 48 °F /  8.9 °C 29.9 in /  1011.7 hPa West 10 mph /  16.1 km/h 20 mph /  32.2 km/h 94 % 0.02 in /  0.5 mm
00:27 49.6 °F /  9.8 °C 48 °F /  8.9 °C 29.9 in /  1011.7 hPa SW 8 mph /  12.9 km/h 20 mph /  32.2 km/h 94 % 0.01 in /  0.3 mm
00:32 49.6 °F /  9.8 °C 48 °F /  8.9 °C 29.9 in /  1011.7 hPa WSW 14 mph /  22.5 km/h 20 mph /  32.2 km/h 94 % 0.01 in /  0.3 mm
00:37 49.6 °F /  9.8 °C 48 °F /  8.9 °C 29.9 in /  1011.7 hPa WSW 11 mph /  17.7 km/h 20 mph /  32.2 km/h 94 % 0.01 in /  0.3 mm
00:42 49.6 °F /  9.8 °C 48 °F /  8.9 °C 29.9 in /  1012.1 hPa SW 8 mph /  12.9 km/h 20 mph /  32.2 km/h 94 % 0.02 in /  0.5 mm
00:47 49.5 °F /  9.7 °C 47.8 °F /  8.8 °C 29.9 in /  1012.1 hPa WSW 7 mph /  11.3 km/h 20 mph /  32.2 km/h 94 % 0.02 in /  0.5 mm
00:52 49.5 °F /  9.7 °C 47.8 °F /  8.8 °C 29.9 in /  1012.1 hPa West 7 mph /  11.3 km/h 19 mph /  30.6 km/h 94 % 0.02 in /  0.5 mm
00:57 49.5 °F /  9.7 °C 48 °F /  8.9 °C 29.9 in /  1012.1 hPa SW 16 mph /  25.7 km/h 19 mph /  30.6 km/h 95 % 0.02 in /  0.5 mm
01:02 49.5 °F /  9.7 °C 48 °F /  8.9 °C 29.9 in /  1012.1 hPa WSW 9 mph /  14.5 km/h 18 mph /  29.0 km/h 95 % 0.03 in /  0.8 mm
01:07 49.5 °F /  9.7 °C 48 °F /  8.9 °C 29.9 in /  1012.1 hPa WSW 15 mph /  24.1 km/h 18 mph /  29.0 km/h 95 % 0.03 in /  0.8 mm
01:12 49.5 °F /  9.7 °C 48 °F /  8.9 °C 29.9 in /  1012.4 hPa WNW 13 mph /  20.9 km/h 18 mph /  29.0 km/h 95 % 0.05 in /  1.3 mm
01:17 49.3 °F /  9.6 °C 47.8 °F /  8.8 °C 29.9 in /  1012.8 hPa West 16 mph /  25.7 km/h 18 mph /  29.0 km/h 95 % 0.08 in /  2.0 mm
01:22 48.9 °F /  9.4 °C 46.9 °F /  8.3 °C 29.9 in /  1012.8 hPa SW 11 mph /  17.7 km/h 24 mph /  38.6 km/h 93 % 0.1 in /  2.5 mm
01:27 48.7 °F /  9.3 °C 46.6 °F /  8.1 °C 29.9 in /  1012.8 hPa West 12 mph /  19.3 km/h 24 mph /  38.6 km/h 92 % 0.1 in /  2.5 mm
01:32 48.7 °F /  9.3 °C 45.9 °F /  7.7 °C 29.9 in /  1012.8 hPa West 7 mph /  11.3 km/h 24 mph /  38.6 km/h 90 % 0.1 in /  2.5 mm
01:37 48.7 °F /  9.3 °C 46.2 °F /  7.9 °C 29.9 in /  1012.8 hPa West 14 mph /  22.5 km/h 20 mph /  32.2 km/h 91 % 0.1 in /  2.5 mm
01:42 48.6 °F /  9.2 °C 46 °F /  7.8 °C 29.9 in /  1013.1 hPa SW 7 mph /  11.3 km/h 19 mph /  30.6 km/h 91 % 0.09 in /  2.3 mm
01:47 48.4 °F /  9.1 °C 46.2 °F /  7.9 °C 29.9 in /  1013.1 hPa West 7 mph /  11.3 km/h 18 mph /  29.0 km/h 92 % 0.09 in /  2.3 mm
01:52 48.4 °F /  9.1 °C 46.2 °F /  7.9 °C 29.9 in /  1013.4 hPa WNW 9 mph /  14.5 km/h 15 mph /  24.1 km/h 92 % 0.09 in /  2.3 mm
01:57 48.4 °F /  9.1 °C 46.2 °F /  7.9 °C 29.9 in /  1013.4 hPa WNW 11 mph /  17.7 km/h 14 mph /  22.5 km/h 92 % 0.09 in /  2.3 mm
02:02 48 °F /  8.9 °C 45.5 °F /  7.5 °C 29.9 in /  1013.4 hPa WNW 10 mph /  16.1 km/h 17 mph /  27.4 km/h 91 % 0.09 in /  2.3 mm
02:07 48 °F /  8.9 °C 45.5 °F /  7.5 °C 29.9 in /  1013.8 hPa WNW 6 mph /  9.7 km/h 17 mph /  27.4 km/h 91 % 0.09 in /  2.3 mm
02:12 47.8 °F /  8.8 °C 45.3 °F /  7.4 °C 29.9 in /  1013.8 hPa West 5 mph /  8.0 km/h 17 mph /  27.4 km/h 91 % 0.07 in /  1.8 mm
02:17 47.8 °F /  8.8 °C 44.4 °F /  6.9 °C 29.9 in /  1013.8 hPa WNW 12 mph /  19.3 km/h 19 mph /  30.6 km/h 88 % 0.02 in /  0.5 mm
02:22 47.7 °F /  8.7 °C 44.2 °F /  6.8 °C 29.9 in /  1013.8 hPa ENE 1 mph /  1.6 km/h 19 mph /  30.6 km/h 88 % 0.02 in /  0.5 mm
02:27 47.7 °F /  8.7 °C 44.1 °F /  6.7 °C 29.9 in /  1013.8 hPa NW 2 mph /  3.2 km/h 19 mph /  30.6 km/h 87 % 0.01 in /  0.3 mm
02:32 47.5 °F /  8.6 °C 43.9 °F /  6.6 °C 29.9 in /  1013.8 hPa NW 5 mph /  8.0 km/h 15 mph /  24.1 km/h 87 % 0.01 in /  0.3 mm
02:37 47.5 °F /  8.6 °C 44.1 °F /  6.7 °C 29.9 in /  1014.1 hPa WNW 2 mph /  3.2 km/h 12 mph /  19.3 km/h 88 % 0.01 in /  0.3 mm
02:42 47.3 °F /  8.5 °C 43.9 °F /  6.6 °C 29.9 in /  1014.1 hPa WSW 2 mph /  3.2 km/h 11 mph /  17.7 km/h 88 % 0.01 in /  0.3 mm
02:47 47.3 °F /  8.5 °C 44.2 °F /  6.8 °C 29.9 in /  1014.1 hPa West 5 mph /  8.0 km/h 9 mph /  14.5 km/h 89 % 0.01 in /  0.3 mm
02:52 47.3 °F /  8.5 °C 43.9 °F /  6.6 °C 29.9 in /  1014.1 hPa WNW 8 mph /  12.9 km/h 9 mph /  14.5 km/h 88 % 0 in /  0.0 mm
02:57 47.1 °F /  8.4 °C 43.7 °F /  6.5 °C 30 in /  1014.4 hPa NW 3 mph /  4.8 km/h 10 mph /  16.1 km/h 88 % 0 in /  0.0 mm
03:02 46.9 °F /  8.3 °C 43.5 °F /  6.4 °C 30 in /  1014.4 hPa WNW 1 mph /  1.6 km/h 10 mph /  16.1 km/h 88 % 0 in /  0.0 mm
03:07 46.8 °F /  8.2 °C 43.3 °F /  6.3 °C 30 in /  1014.4 hPa West 6 mph /  9.7 km/h 10 mph /  16.1 km/h 88 % 0 in /  0.0 mm
03:12 46.8 °F /  8.2 °C 43.2 °F /  6.2 °C 30 in /  1014.4 hPa West 4 mph /  6.4 km/h 10 mph /  16.1 km/h 87 % 0 in /  0.0 mm
03:17 46.6 °F /  8.1 °C 43 °F /  6.1 °C 30 in /  1014.4 hPa NNW 3 mph /  4.8 km/h 10 mph /  16.1 km/h 87 % 0 in /  0.0 mm
03:22 46.2 °F /  7.9 °C 42.6 °F /  5.9 °C 30 in /  1014.4 hPa WSW 5 mph /  8.0 km/h 11 mph /  17.7 km/h 87 % 0 in /  0.0 mm
03:27 46 °F /  7.8 °C 42.4 °F /  5.8 °C 30 in /  1014.4 hPa WNW 4 mph /  6.4 km/h 11 mph /  17.7 km/h 87 % 0 in /  0.0 mm
03:32 45.9 °F /  7.7 °C 42.4 °F /  5.8 °C 30 in /  1014.8 hPa WNW 5 mph /  8.0 km/h 11 mph /  17.7 km/h 88 % 0 in /  0.0 mm
03:37 45.7 °F /  7.6 °C 42.3 °F /  5.7 °C 30 in /  1014.8 hPa WSW 3 mph /  4.8 km/h 8 mph /  12.9 km/h 88 % 0 in /  0.0 mm
03:42 45.5 °F /  7.5 °C 42.1 °F /  5.6 °C 30 in /  1014.8 hPa WSW 3 mph /  4.8 km/h 8 mph /  12.9 km/h 88 % 0 in /  0.0 mm
03:52 45.1 °F /  7.3 °C 42.1 °F /  5.6 °C 30 in /  1014.8 hPa WSW 4 mph /  6.4 km/h 6 mph /  9.7 km/h 89 % 0 in /  0.0 mm
03:57 44.8 °F /  7.1 °C 42.1 °F /  5.6 °C 30 in /  1014.8 hPa WSW 4 mph /  6.4 km/h 8 mph /  12.9 km/h 90 % 0 in /  0.0 mm
04:02 44.6 °F /  7.0 °C 41.9 °F /  5.5 °C 30 in /  1014.8 hPa West 4 mph /  6.4 km/h 8 mph /  12.9 km/h 90 % 0 in /  0.0 mm
04:07 44.4 °F /  6.9 °C 41.9 °F /  5.5 °C 30 in /  1014.8 hPa WSW 6 mph /  9.7 km/h 8 mph /  12.9 km/h 91 % 0 in /  0.0 mm
04:12 44.2 °F /  6.8 °C 41.7 °F /  5.4 °C 30 in /  1014.8 hPa West 6 mph /  9.7 km/h 8 mph /  12.9 km/h 91 % 0 in /  0.0 mm
04:17 44.2 °F /  6.8 °C 42.1 °F /  5.6 °C 30 in /  1014.8 hPa WSW 4 mph /  6.4 km/h 8 mph /  12.9 km/h 92 % 0 in /  0.0 mm
04:22 44.1 °F /  6.7 °C 41.9 °F /  5.5 °C 30 in /  1015.1 hPa West 2 mph /  3.2 km/h 8 mph /  12.9 km/h 92 % 0 in /  0.0 mm
04:27 44.1 °F /  6.7 °C 41.9 °F /  5.5 °C 30 in /  1015.1 hPa WSW 5 mph /  8.0 km/h 7 mph /  11.3 km/h 92 % 0 in /  0.0 mm
04:32 43.9 °F /  6.6 °C 41.7 °F /  5.4 °C 30 in /  1015.1 hPa WSW 4 mph /  6.4 km/h 8 mph /  12.9 km/h 92 % 0 in /  0.0 mm
04:37 43.9 °F /  6.6 °C 41.7 °F /  5.4 °C 30 in /  1015.1 hPa WSW 3 mph /  4.8 km/h 8 mph /  12.9 km/h 92 % 0 in /  0.0 mm
04:42 43.7 °F /  6.5 °C 41.5 °F /  5.3 °C 30 in /  1015.5 hPa West 2 mph /  3.2 km/h 8 mph /  12.9 km/h 92 % 0 in /  0.0 mm
04:52 43.5 °F /  6.4 °C 41.7 °F /  5.4 °C 30 in /  1015.5 hPa West 3 mph /  4.8 km/h 8 mph /  12.9 km/h 93 % 0 in /  0.0 mm
04:57 43.3 °F /  6.3 °C 41.5 °F /  5.3 °C 30 in /  1015.5 hPa West 4 mph /  6.4 km/h 8 mph /  12.9 km/h 93 % 0 in /  0.0 mm
05:02 43.3 °F /  6.3 °C 41.5 °F /  5.3 °C 30 in /  1015.8 hPa WNW 2 mph /  3.2 km/h 8 mph /  12.9 km/h 93 % 0 in /  0.0 mm
05:12 43.2 °F /  6.2 °C 41.4 °F /  5.2 °C 30 in /  1015.8 hPa West 2 mph /  3.2 km/h 7 mph /  11.3 km/h 93 % 0 in /  0.0 mm
05:17 43 °F /  6.1 °C 41.2 °F /  5.1 °C 30 in /  1015.8 hPa West 3 mph /  4.8 km/h 7 mph /  11.3 km/h 93 % 0 in /  0.0 mm
05:22 43 °F /  6.1 °C 41.2 °F /  5.1 °C 30 in /  1015.8 hPa WSW 4 mph /  6.4 km/h 6 mph /  9.7 km/h 93 % 0 in /  0.0 mm
05:27 43 °F /  6.1 °C 41.2 °F /  5.1 °C 30 in /  1015.8 hPa WSW 1 mph /  1.6 km/h 5 mph /  8.0 km/h 93 % 0 in /  0.0 mm
05:32 43 °F /  6.1 °C 41.2 °F /  5.1 °C 30 in /  1016.1 hPa WSW 1 mph /  1.6 km/h 5 mph /  8.0 km/h 93 % 0 in /  0.0 mm
05:37 43 °F /  6.1 °C 41.2 °F /  5.1 °C 30 in /  1016.1 hPa WSW 2 mph /  3.2 km/h 5 mph /  8.0 km/h 93 % 0 in /  0.0 mm
05:42 43 °F /  6.1 °C 41.2 °F /  5.1 °C 30 in /  1016.1 hPa Calm   4 mph /  6.4 km/h 93 % 0 in /  0.0 mm
05:52 43 °F /  6.1 °C 41.2 °F /  5.1 °C 30 in /  1016.1 hPa WSW 1 mph /  1.6 km/h 4 mph /  6.4 km/h 93 % 0 in /  0.0 mm
05:57 43.2 °F /  6.2 °C 41.4 °F /  5.2 °C 30 in /  1016.1 hPa West 2 mph /  3.2 km/h 4 mph /  6.4 km/h 93 % 0 in /  0.0 mm
06:02 43.2 °F /  6.2 °C 41 °F /  5.0 °C 30 in /  1016.5 hPa West 5 mph /  8.0 km/h 5 mph /  8.0 km/h 92 % 0 in /  0.0 mm
06:07 43 °F /  6.1 °C 40.8 °F /  4.9 °C 30 in /  1016.5 hPa West 4 mph /  6.4 km/h 6 mph /  9.7 km/h 92 % 0 in /  0.0 mm
06:12 43 °F /  6.1 °C 40.5 °F /  4.7 °C 30 in /  1016.5 hPa West 3 mph /  4.8 km/h 8 mph /  12.9 km/h 91 % 0 in /  0.0 mm
06:17 42.8 °F /  6.0 °C 40.3 °F /  4.6 °C 30 in /  1016.5 hPa West 3 mph /  4.8 km/h 8 mph /  12.9 km/h 91 % 0 in /  0.0 mm
06:22 42.6 °F /  5.9 °C 40.1 °F /  4.5 °C 30 in /  1016.5 hPa West 5 mph /  8.0 km/h 5 mph /  8.0 km/h 91 % 0 in /  0.0 mm
06:27 42.6 °F /  5.9 °C 40.1 °F /  4.5 °C 30 in /  1016.8 hPa WSW 4 mph /  6.4 km/h 6 mph /  9.7 km/h 91 % 0 in /  0.0 mm
06:32 42.4 °F /  5.8 °C 40.3 °F /  4.6 °C 30 in /  1016.8 hPa West 4 mph /  6.4 km/h 6 mph /  9.7 km/h 92 % 0 in /  0.0 mm
06:37 42.6 °F /  5.9 °C 40.5 °F /  4.7 °C 30 in /  1016.8 hPa WNW 4 mph /  6.4 km/h 7 mph /  11.3 km/h 92 % 0 in /  0.0 mm
06:47 42.8 °F /  6.0 °C 40.6 °F /  4.8 °C 30 in /  1017.2 hPa WNW 7 mph /  11.3 km/h 7 mph /  11.3 km/h 92 % 0 in /  0.0 mm
06:57 42.8 °F /  6.0 °C 40.3 °F /  4.6 °C 30 in /  1017.2 hPa WNW 5 mph /  8.0 km/h 9 mph /  14.5 km/h 91 % 0 in /  0.0 mm
07:02 42.6 °F /  5.9 °C 40.1 °F /  4.5 °C 30 in /  1017.2 hPa West 5 mph /  8.0 km/h 9 mph /  14.5 km/h 91 % 0 in /  0.0 mm
07:12 42.3 °F /  5.7 °C 39.7 °F /  4.3 °C 30 in /  1017.2 hPa West 3 mph /  4.8 km/h 8 mph /  12.9 km/h 91 % 0 in /  0.0 mm
07:17 42.3 °F /  5.7 °C 39.7 °F /  4.3 °C 30 in /  1017.2 hPa West 5 mph /  8.0 km/h 8 mph /  12.9 km/h 91 % 0 in /  0.0 mm
07:22 42.1 °F /  5.6 °C 39.6 °F /  4.2 °C 30 in /  1017.2 hPa West 4 mph /  6.4 km/h 7 mph /  11.3 km/h 91 % 0 in /  0.0 mm
07:32 41.7 °F /  5.4 °C 39.6 °F /  4.2 °C 30.1 in /  1017.5 hPa West 4 mph /  6.4 km/h 10 mph /  16.1 km/h 92 % 0 in /  0.0 mm
07:37 41.5 °F /  5.3 °C 39.4 °F /  4.1 °C 30.1 in /  1017.5 hPa West 3 mph /  4.8 km/h 10 mph /  16.1 km/h 92 % 0 in /  0.0 mm
07:42 41.5 °F /  5.3 °C 39.4 °F /  4.1 °C 30.1 in /  1017.5 hPa WSW 6 mph /  9.7 km/h 9 mph /  14.5 km/h 92 % 0 in /  0.0 mm
07:47 41.5 °F /  5.3 °C 39.4 °F /  4.1 °C 30.1 in /  1017.5 hPa WSW 7 mph /  11.3 km/h 9 mph /  14.5 km/h 92 % 0 in /  0.0 mm
07:52 41.4 °F /  5.2 °C 39.2 °F /  4.0 °C 30.1 in /  1017.8 hPa West 4 mph /  6.4 km/h 9 mph /  14.5 km/h 92 % 0 in /  0.0 mm
07:57 41.4 °F /  5.2 °C 39.2 °F /  4.0 °C 30.1 in /  1017.8 hPa SW 6 mph /  9.7 km/h 9 mph /  14.5 km/h 92 % 0 in /  0.0 mm
08:02 41.4 °F /  5.2 °C 39.2 °F /  4.0 °C 30.1 in /  1017.8 hPa WSW 6 mph /  9.7 km/h 10 mph /  16.1 km/h 92 % 0 in /  0.0 mm
08:07 41.4 °F /  5.2 °C 39.2 °F /  4.0 °C 30.1 in /  1018.2 hPa West 5 mph /  8.0 km/h 10 mph /  16.1 km/h 92 % 0 in /  0.0 mm
08:12 41.4 °F /  5.2 °C 39.2 °F /  4.0 °C 30.1 in /  1018.2 hPa WSW 5 mph /  8.0 km/h 11 mph /  17.7 km/h 92 % 0 in /  0.0 mm
08:17 41.4 °F /  5.2 °C 39.2 °F /  4.0 °C 30.1 in /  1018.2 hPa WNW 3 mph /  4.8 km/h 11 mph /  17.7 km/h 92 % 0 in /  0.0 mm
08:22 41.4 °F /  5.2 °C 39.2 °F /  4.0 °C 30.1 in /  1018.5 hPa WNW 5 mph /  8.0 km/h 11 mph /  17.7 km/h 92 % 0 in /  0.0 mm
08:27 41.4 °F /  5.2 °C 39.2 °F /  4.0 °C 30.1 in /  1018.5 hPa West 1 mph /  1.6 km/h 7 mph /  11.3 km/h 92 % 0 in /  0.0 mm
08:32 41.4 °F /  5.2 °C 39.2 °F /  4.0 °C 30.1 in /  1018.5 hPa Calm   6 mph /  9.7 km/h 92 % 0 in /  0.0 mm
08:37 41.4 °F /  5.2 °C 39.2 °F /  4.0 °C 30.1 in /  1018.5 hPa West 3 mph /  4.8 km/h 6 mph /  9.7 km/h 92 % 0 in /  0.0 mm
08:42 41.5 °F /  5.3 °C 39.4 °F /  4.1 °C 30.1 in /  1018.8 hPa Calm   5 mph /  8.0 km/h 92 % 0 in /  0.0 mm
08:52 41.7 °F /  5.4 °C 39.6 °F /  4.2 °C 30.1 in /  1018.8 hPa Calm   5 mph /  8.0 km/h 92 % 0 in /  0.0 mm
08:57 42.1 °F /  5.6 °C 39.9 °F /  4.4 °C 30.1 in /  1019.2 hPa Calm   3 mph /  4.8 km/h 92 % 0 in /  0.0 mm
09:02 42.3 °F /  5.7 °C 40.1 °F /  4.5 °C 30.1 in /  1019.2 hPa Calm   3 mph /  4.8 km/h 92 % 0 in /  0.0 mm
09:12 42.8 °F /  6.0 °C 40.6 °F /  4.8 °C 30.1 in /  1019.2 hPa SE 1 mph /  1.6 km/h 2 mph /  3.2 km/h 92 % 0 in /  0.0 mm
09:17 43.2 °F /  6.2 °C 41 °F /  5.0 °C 30.1 in /  1019.5 hPa Calm   2 mph /  3.2 km/h 92 % 0 in /  0.0 mm
09:22 43.3 °F /  6.3 °C 40.8 °F /  4.9 °C 30.1 in /  1019.5 hPa Calm   2 mph /  3.2 km/h 91 % 0 in /  0.0 mm
09:27 43.7 °F /  6.5 °C 41.2 °F /  5.1 °C 30.1 in /  1019.5 hPa WSW 1 mph /  1.6 km/h 2 mph /  3.2 km/h 91 % 0 in /  0.0 mm
09:32 43.7 °F /  6.5 °C 40.6 °F /  4.8 °C 30.1 in /  1019.5 hPa SSW 3 mph /  4.8 km/h 3 mph /  4.8 km/h 89 % 0 in /  0.0 mm
09:37 44.1 °F /  6.7 °C 41 °F /  5.0 °C 30.1 in /  1019.9 hPa West 1 mph /  1.6 km/h 4 mph /  6.4 km/h 89 % 0 in /  0.0 mm
09:42 44.2 °F /  6.8 °C 41.2 °F /  5.1 °C 30.1 in /  1019.9 hPa South 1 mph /  1.6 km/h 4 mph /  6.4 km/h 89 % 0 in /  0.0 mm
09:47 44.2 °F /  6.8 °C 41.2 °F /  5.1 °C 30.1 in /  1019.9 hPa SW 3 mph /  4.8 km/h 3 mph /  4.8 km/h 89 % 0 in /  0.0 mm
09:52 44.2 °F /  6.8 °C 41 °F /  5.0 °C 30.1 in /  1019.9 hPa SW 2 mph /  3.2 km/h 3 mph /  4.8 km/h 88 % 0 in /  0.0 mm
09:57 44.4 °F /  6.9 °C 41.4 °F /  5.2 °C 30.1 in /  1019.9 hPa WSW 4 mph /  6.4 km/h 5 mph /  8.0 km/h 89 % 0 in /  0.0 mm
10:02 44.8 °F /  7.1 °C 41.7 °F /  5.4 °C 30.1 in /  1019.9 hPa SW 1 mph /  1.6 km/h 5 mph /  8.0 km/h 89 % 0 in /  0.0 mm
10:07 45 °F /  7.2 °C 41.4 °F /  5.2 °C 30.1 in /  1019.9 hPa West 2 mph /  3.2 km/h 5 mph /  8.0 km/h 87 % 0 in /  0.0 mm
10:12 45 °F /  7.2 °C 41 °F /  5.0 °C 30.1 in /  1019.9 hPa WSW 5 mph /  8.0 km/h 5 mph /  8.0 km/h 86 % 0 in /  0.0 mm
10:17 45 °F /  7.2 °C 41 °F /  5.0 °C 30.1 in /  1020.2 hPa West 2 mph /  3.2 km/h 6 mph /  9.7 km/h 86 % 0 in /  0.0 mm
10:22 45 °F /  7.2 °C 41 °F /  5.0 °C 30.1 in /  1020.2 hPa WSW 4 mph /  6.4 km/h 6 mph /  9.7 km/h 86 % 0 in /  0.0 mm
10:32 44.8 °F /  7.1 °C 40.5 °F /  4.7 °C 30.1 in /  1020.2 hPa Calm   6 mph /  9.7 km/h 85 % 0 in /  0.0 mm
10:37 45.1 °F /  7.3 °C 40.8 °F /  4.9 °C 30.1 in /  1020.2 hPa SSW 2 mph /  3.2 km/h 7 mph /  11.3 km/h 85 % 0 in /  0.0 mm
10:42 45.7 °F /  7.6 °C 41.4 °F /  5.2 °C 30.1 in /  1020.2 hPa West 2 mph /  3.2 km/h 7 mph /  11.3 km/h 85 % 0 in /  0.0 mm
10:47 45.9 °F /  7.7 °C 41 °F /  5.0 °C 30.1 in /  1020.2 hPa West 3 mph /  4.8 km/h 5 mph /  8.0 km/h 83 % 0 in /  0.0 mm
10:57 46.2 °F /  7.9 °C 41.4 °F /  5.2 °C 30.1 in /  1020.5 hPa Calm   7 mph /  11.3 km/h 83 % 0 in /  0.0 mm
11:02 46.6 °F /  8.1 °C 40.5 °F /  4.7 °C 30.1 in /  1020.5 hPa West 2 mph /  3.2 km/h 7 mph /  11.3 km/h 79 % 0 in /  0.0 mm
11:07 46.6 °F /  8.1 °C 40.8 °F /  4.9 °C 30.1 in /  1020.5 hPa West 2 mph /  3.2 km/h 7 mph /  11.3 km/h 80 % 0 in /  0.0 mm
11:12 46.8 °F /  8.2 °C 39.6 °F /  4.2 °C 30.1 in /  1020.5 hPa West 2 mph /  3.2 km/h 5 mph /  8.0 km/h 76 % 0 in /  0.0 mm
11:17 47.3 °F /  8.5 °C 40.1 °F /  4.5 °C 30.1 in /  1020.5 hPa West 3 mph /  4.8 km/h 5 mph /  8.0 km/h 76 % 0 in /  0.0 mm
11:22 47.1 °F /  8.4 °C 38.8 °F /  3.8 °C 30.2 in /  1020.9 hPa West 5 mph /  8.0 km/h 5 mph /  8.0 km/h 73 % 0 in /  0.0 mm
11:32 46.9 °F /  8.3 °C 37.6 °F /  3.1 °C 30.2 in /  1020.9 hPa NW 4 mph /  6.4 km/h 10 mph /  16.1 km/h 70 % 0 in /  0.0 mm
11:37 47.1 °F /  8.4 °C 37 °F /  2.8 °C 30.2 in /  1020.9 hPa WNW 6 mph /  9.7 km/h 11 mph /  17.7 km/h 68 % 0 in /  0.0 mm
11:42 47.3 °F /  8.5 °C 36.9 °F /  2.7 °C 30.2 in /  1020.9 hPa West 1 mph /  1.6 km/h 11 mph /  17.7 km/h 67 % 0 in /  0.0 mm
11:47 47.3 °F /  8.5 °C 37.9 °F /  3.3 °C 30.2 in /  1020.9 hPa North 3 mph /  4.8 km/h 10 mph /  16.1 km/h 70 % 0 in /  0.0 mm
11:52 47.7 °F /  8.7 °C 36.9 °F /  2.7 °C 30.2 in /  1020.9 hPa NNW 1 mph /  1.6 km/h 8 mph /  12.9 km/h 66 % 0 in /  0.0 mm
11:57 47.7 °F /  8.7 °C 37.6 °F /  3.1 °C 30.2 in /  1020.9 hPa West 2 mph /  3.2 km/h 7 mph /  11.3 km/h 68 % 0 in /  0.0 mm
12:02 47.7 °F /  8.7 °C 36.5 °F /  2.5 °C 30.2 in /  1020.9 hPa WSW 3 mph /  4.8 km/h 7 mph /  11.3 km/h 65 % 0 in /  0.0 mm
12:07 47.8 °F /  8.8 °C 38.1 °F /  3.4 °C 30.2 in /  1020.9 hPa West 1 mph /  1.6 km/h 6 mph /  9.7 km/h 69 % 0 in /  0.0 mm
12:12 47.8 °F /  8.8 °C 37.4 °F /  3.0 °C 30.2 in /  1020.9 hPa WSW 2 mph /  3.2 km/h 6 mph /  9.7 km/h 67 % 0 in /  0.0 mm
12:17 47.8 °F /  8.8 °C 36.7 °F /  2.6 °C 30.2 in /  1020.9 hPa WSW 2 mph /  3.2 km/h 5 mph /  8.0 km/h 65 % 0 in /  0.0 mm
12:22 48 °F /  8.9 °C 37.2 °F /  2.9 °C 30.2 in /  1020.9 hPa West 3 mph /  4.8 km/h 8 mph /  12.9 km/h 66 % 0 in /  0.0 mm
12:27 48.4 °F /  9.1 °C 37.6 °F /  3.1 °C 30.2 in /  1020.9 hPa SW 3 mph /  4.8 km/h 8 mph /  12.9 km/h 66 % 0 in /  0.0 mm
12:32 48.4 °F /  9.1 °C 35.6 °F /  2.0 °C 30.2 in /  1020.9 hPa WNW 3 mph /  4.8 km/h 6 mph /  9.7 km/h 61 % 0 in /  0.0 mm
12:37 48.4 °F /  9.1 °C 36.3 °F /  2.4 °C 30.2 in /  1020.9 hPa WNW 1 mph /  1.6 km/h 6 mph /  9.7 km/h 63 % 0 in /  0.0 mm
12:42 48.6 °F /  9.2 °C 36.5 °F /  2.5 °C 30.1 in /  1020.5 hPa NW 1 mph /  1.6 km/h 6 mph /  9.7 km/h 63 % 0 in /  0.0 mm
12:47 48.7 °F /  9.3 °C 36.7 °F /  2.6 °C 30.1 in /  1020.5 hPa WSW 2 mph /  3.2 km/h 6 mph /  9.7 km/h 63 % 0 in /  0.0 mm
12:52 49.3 °F /  9.6 °C 37.6 °F /  3.1 °C 30.2 in /  1020.9 hPa West 4 mph /  6.4 km/h 6 mph /  9.7 km/h 64 % 0 in /  0.0 mm
12:57 49.1 °F /  9.5 °C 37 °F /  2.8 °C 30.1 in /  1020.5 hPa Calm   6 mph /  9.7 km/h 63 % 0 in /  0.0 mm
13:02 49.8 °F /  9.9 °C 36.5 °F /  2.5 °C 30.1 in /  1020.5 hPa Calm   6 mph /  9.7 km/h 60 % 0 in /  0.0 mm
13:07 50.4 °F /  10.2 °C 37 °F /  2.8 °C 30.1 in /  1020.5 hPa WSW 4 mph /  6.4 km/h 5 mph /  8.0 km/h 60 % 0 in /  0.0 mm
13:12 50.4 °F /  10.2 °C 35.2 °F /  1.8 °C 30.1 in /  1020.5 hPa SW 2 mph /  3.2 km/h 6 mph /  9.7 km/h 56 % 0 in /  0.0 mm
13:22 49.6 °F /  9.8 °C 33.3 °F /  0.7 °C 30.1 in /  1020.5 hPa WSW 2 mph /  3.2 km/h 7 mph /  11.3 km/h 53 % 0 in /  0.0 mm
13:32 49.8 °F /  9.9 °C 33.8 °F /  1.0 °C 30.1 in /  1020.5 hPa West 2 mph /  3.2 km/h 6 mph /  9.7 km/h 54 % 0 in /  0.0 mm
13:37 49.6 °F /  9.8 °C 34.5 °F /  1.4 °C 30.1 in /  1020.2 hPa SW 3 mph /  4.8 km/h 5 mph /  8.0 km/h 56 % 0 in /  0.0 mm
13:47 50.2 °F /  10.1 °C 39.2 °F /  4.0 °C 30.1 in /  1020.2 hPa SSW 1 mph /  1.6 km/h 6 mph /  9.7 km/h 66 % 0 in /  0.0 mm
13:52 50.2 °F /  10.1 °C 36.3 °F /  2.4 °C 30.1 in /  1020.2 hPa SW 5 mph /  8.0 km/h 6 mph /  9.7 km/h 59 % 0 in /  0.0 mm
13:57 50.7 °F /  10.4 °C 37.4 °F /  3.0 °C 30.1 in /  1020.2 hPa SW 6 mph /  9.7 km/h 8 mph /  12.9 km/h 60 % 0 in /  0.0 mm
14:02 50.4 °F /  10.2 °C 35.2 °F /  1.8 °C 30.1 in /  1020.2 hPa SSW 2 mph /  3.2 km/h 9 mph /  14.5 km/h 56 % 0 in /  0.0 mm
14:07 50.5 °F /  10.3 °C 36.7 °F /  2.6 °C 30.1 in /  1020.2 hPa SW 3 mph /  4.8 km/h 9 mph /  14.5 km/h 59 % 0 in /  0.0 mm
14:12 50.4 °F /  10.2 °C 36.1 °F /  2.3 °C 30.1 in /  1019.9 hPa South 5 mph /  8.0 km/h 11 mph /  17.7 km/h 58 % 0 in /  0.0 mm
14:17 50.5 °F /  10.3 °C 37.6 °F /  3.1 °C 30.1 in /  1019.9 hPa SSW 5 mph /  8.0 km/h 11 mph /  17.7 km/h 61 % 0 in /  0.0 mm
14:22 50.5 °F /  10.3 °C 36.7 °F /  2.6 °C 30.1 in /  1019.9 hPa SSE 4 mph /  6.4 km/h 11 mph /  17.7 km/h 59 % 0 in /  0.0 mm
14:27 50.4 °F /  10.2 °C 37.8 °F /  3.2 °C 30.1 in /  1019.9 hPa SSW 4 mph /  6.4 km/h 11 mph /  17.7 km/h 62 % 0 in /  0.0 mm
14:32 50.4 °F /  10.2 °C 37.8 °F /  3.2 °C 30.1 in /  1019.9 hPa SSW 6 mph /  9.7 km/h 11 mph /  17.7 km/h 62 % 0 in /  0.0 mm
14:37 50.2 °F /  10.1 °C 38.5 °F /  3.6 °C 30.1 in /  1019.9 hPa SW 5 mph /  8.0 km/h 11 mph /  17.7 km/h 64 % 0 in /  0.0 mm
14:42 50.2 °F /  10.1 °C 36.9 °F /  2.7 °C 30.1 in /  1019.9 hPa SW 11 mph /  17.7 km/h 11 mph /  17.7 km/h 60 % 0 in /  0.0 mm
14:49 50.2 °F /  10.1 °C 35.6 °F /  2.0 °C 30.1 in /  1019.9 hPa SSW 8 mph /  12.9 km/h 12 mph /  19.3 km/h 57 % 0 in /  0.0 mm
14:57 50.4 °F /  10.2 °C 36.1 °F /  2.3 °C 30.1 in /  1019.9 hPa SSW 7 mph /  11.3 km/h 12 mph /  19.3 km/h 58 % 0 in /  0.0 mm
15:02 50.2 °F /  10.1 °C 35.6 °F /  2.0 °C 30.1 in /  1019.9 hPa SSW 7 mph /  11.3 km/h 9 mph /  14.5 km/h 57 % 0 in /  0.0 mm
15:07 50.2 °F /  10.1 °C 35.6 °F /  2.0 °C 30.1 in /  1019.9 hPa SSW 4 mph /  6.4 km/h 9 mph /  14.5 km/h 57 % 0 in /  0.0 mm
15:12 50.2 °F /  10.1 °C 37.6 °F /  3.1 °C 30.1 in /  1019.9 hPa SW 5 mph /  8.0 km/h 9 mph /  14.5 km/h 62 % 0 in /  0.0 mm
15:17 50.2 °F /  10.1 °C 36 °F /  2.2 °C 30.1 in /  1019.9 hPa WSW 4 mph /  6.4 km/h 9 mph /  14.5 km/h 58 % 0 in /  0.0 mm
15:22 50.4 °F /  10.2 °C 36.1 °F /  2.3 °C 30.1 in /  1019.9 hPa West 2 mph /  3.2 km/h 9 mph /  14.5 km/h 58 % 0 in /  0.0 mm
15:32 50.4 °F /  10.2 °C 36.5 °F /  2.5 °C 30.1 in /  1019.5 hPa SW 7 mph /  11.3 km/h 8 mph /  12.9 km/h 59 % 0 in /  0.0 mm
15:37 50.2 °F /  10.1 °C 36 °F /  2.2 °C 30.1 in /  1019.5 hPa SW 2 mph /  3.2 km/h 8 mph /  12.9 km/h 58 % 0 in /  0.0 mm
15:42 50.4 °F /  10.2 °C 36.5 °F /  2.5 °C 30.1 in /  1019.5 hPa SSW 3 mph /  4.8 km/h 8 mph /  12.9 km/h 59 % 0 in /  0.0 mm
15:47 50.4 °F /  10.2 °C 36.1 °F /  2.3 °C 30.1 in /  1019.5 hPa SSW 4 mph /  6.4 km/h 8 mph /  12.9 km/h 58 % 0 in /  0.0 mm
15:52 50.4 °F /  10.2 °C 35.2 °F /  1.8 °C 30.1 in /  1019.5 hPa SW 3 mph /  4.8 km/h 7 mph /  11.3 km/h 56 % 0 in /  0.0 mm
15:57 50.4 °F /  10.2 °C 35.2 °F /  1.8 °C 30.1 in /  1019.5 hPa SSW 1 mph /  1.6 km/h 10 mph /  16.1 km/h 56 % 0 in /  0.0 mm
16:02 50.5 °F /  10.3 °C 35.1 °F /  1.7 °C 30.1 in /  1019.5 hPa South 5 mph /  8.0 km/h 10 mph /  16.1 km/h 55 % 0 in /  0.0 mm
16:07 50.5 °F /  10.3 °C 35.4 °F /  1.9 °C 30.1 in /  1019.5 hPa SSW 4 mph /  6.4 km/h 9 mph /  14.5 km/h 56 % 0 in /  0.0 mm
16:12 50.5 °F /  10.3 °C 34.5 °F /  1.4 °C 30.1 in /  1019.5 hPa SSW 2 mph /  3.2 km/h 9 mph /  14.5 km/h 54 % 0 in /  0.0 mm
16:17 50.4 °F /  10.2 °C 34.3 °F /  1.3 °C 30.1 in /  1019.2 hPa SSW 5 mph /  8.0 km/h 9 mph /  14.5 km/h 54 % 0 in /  0.0 mm
16:22 50.4 °F /  10.2 °C 35.8 °F /  2.1 °C 30.1 in /  1019.5 hPa SSW 4 mph /  6.4 km/h 8 mph /  12.9 km/h 57 % 0 in /  0.0 mm
16:27 50.4 °F /  10.2 °C 36.5 °F /  2.5 °C 30.1 in /  1019.2 hPa South 5 mph /  8.0 km/h 7 mph /  11.3 km/h 59 % 0 in /  0.0 mm
16:32 50.2 °F /  10.1 °C 36.3 °F /  2.4 °C 30.1 in /  1019.2 hPa South 2 mph /  3.2 km/h 8 mph /  12.9 km/h 59 % 0 in /  0.0 mm
16:37 50 °F /  10.0 °C 34.9 °F /  1.6 °C 30.1 in /  1019.2 hPa SW 2 mph /  3.2 km/h 8 mph /  12.9 km/h 56 % 0 in /  0.0 mm
16:42 50 °F /  10.0 °C 37 °F /  2.8 °C 30.1 in /  1019.2 hPa SSW 1 mph /  1.6 km/h 8 mph /  12.9 km/h 61 % 0 in /  0.0 mm
16:47 50 °F /  10.0 °C 36.3 °F /  2.4 °C 30.1 in /  1019.2 hPa South 2 mph /  3.2 km/h 7 mph /  11.3 km/h 59 % 0 in /  0.0 mm
16:52 50.2 °F /  10.1 °C 37.2 °F /  2.9 °C 30.1 in /  1019.2 hPa South 2 mph /  3.2 km/h 7 mph /  11.3 km/h 61 % 0 in /  0.0 mm
16:57 49.8 °F /  9.9 °C 36.1 °F /  2.3 °C 30.1 in /  1019.2 hPa South 4 mph /  6.4 km/h 7 mph /  11.3 km/h 59 % 0 in /  0.0 mm
17:02 49.8 °F /  9.9 °C 36.1 °F /  2.3 °C 30.1 in /  1018.8 hPa SSW 3 mph /  4.8 km/h 7 mph /  11.3 km/h 59 % 0 in /  0.0 mm
17:07 49.8 °F /  9.9 °C 36.9 °F /  2.7 °C 30.1 in /  1018.8 hPa SSW 3 mph /  4.8 km/h 7 mph /  11.3 km/h 61 % 0 in /  0.0 mm
17:12 49.6 °F /  9.8 °C 34.5 °F /  1.4 °C 30.1 in /  1018.8 hPa SSW 4 mph /  6.4 km/h 7 mph /  11.3 km/h 56 % 0 in /  0.0 mm
17:17 49.6 °F /  9.8 °C 35.1 °F /  1.7 °C 30.1 in /  1018.8 hPa SSW 3 mph /  4.8 km/h 7 mph /  11.3 km/h 57 % 0 in /  0.0 mm
17:22 49.6 °F /  9.8 °C 35.1 °F /  1.7 °C 30.1 in /  1018.8 hPa SSW 4 mph /  6.4 km/h 6 mph /  9.7 km/h 57 % 0 in /  0.0 mm
17:32 49.6 °F /  9.8 °C 37.2 °F /  2.9 °C 30.1 in /  1018.8 hPa SSW 1 mph /  1.6 km/h 5 mph /  8.0 km/h 62 % 0 in /  0.0 mm
17:42 49.5 °F /  9.7 °C 36.5 °F /  2.5 °C 30.1 in /  1018.8 hPa SSW 1 mph /  1.6 km/h 5 mph /  8.0 km/h 61 % 0 in /  0.0 mm
17:47 49.3 °F /  9.6 °C 37.6 °F /  3.1 °C 30.1 in /  1018.8 hPa Calm   3 mph /  4.8 km/h 64 % 0 in /  0.0 mm
17:52 49.3 °F /  9.6 °C 37.2 °F /  2.9 °C 30.1 in /  1018.8 hPa SSW 1 mph /  1.6 km/h 3 mph /  4.8 km/h 63 % 0 in /  0.0 mm
17:57 49.1 °F /  9.5 °C 37.4 °F /  3.0 °C 30.1 in /  1018.8 hPa Calm   3 mph /  4.8 km/h 64 % 0 in /  0.0 mm
18:02 48.9 °F /  9.4 °C 36.9 °F /  2.7 °C 30.1 in /  1018.8 hPa Calm   1 mph /  1.6 km/h 63 % 0 in /  0.0 mm
18:07 48.9 °F /  9.4 °C 37.2 °F /  2.9 °C 30.1 in /  1018.8 hPa Calm   1 mph /  1.6 km/h 64 % 0 in /  0.0 mm
18:12 48.7 °F /  9.3 °C 37.6 °F /  3.1 °C 30.1 in /  1018.8 hPa Calm   1 mph /  1.6 km/h 65 % 0 in /  0.0 mm
18:17 48.6 °F /  9.2 °C 37.8 °F /  3.2 °C 30.1 in /  1018.8 hPa Calm   1 mph /  1.6 km/h 66 % 0 in /  0.0 mm
18:22 48.4 °F /  9.1 °C 38.3 °F /  3.5 °C 30.1 in /  1018.8 hPa Calm     68 % 0 in /  0.0 mm
18:32 47.8 °F /  8.8 °C 38.5 °F /  3.6 °C 30.1 in /  1018.5 hPa Calm     70 % 0 in /  0.0 mm
18:42 47.5 °F /  8.6 °C 38.5 °F /  3.6 °C 30.1 in /  1018.5 hPa Calm     71 % 0 in /  0.0 mm
18:47 47.1 °F /  8.4 °C 37.8 °F /  3.2 °C 30.1 in /  1018.5 hPa Calm     70 % 0 in /  0.0 mm
18:52 46.9 °F /  8.3 °C 38.1 °F /  3.4 °C 30.1 in /  1018.8 hPa Calm     71 % 0 in /  0.0 mm
18:57 46.9 °F /  8.3 °C 38.1 °F /  3.4 °C 30.1 in /  1018.8 hPa Calm     71 % 0 in /  0.0 mm
19:02 46.8 °F /  8.2 °C 37.9 °F /  3.3 °C 30.1 in /  1018.8 hPa Calm     71 % 0 in /  0.0 mm
19:07 46.8 °F /  8.2 °C 37.9 °F /  3.3 °C 30.1 in /  1018.8 hPa Calm     71 % 0 in /  0.0 mm
19:12 46.6 °F /  8.1 °C 37.8 °F /  3.2 °C 30.1 in /  1018.8 hPa Calm     71 % 0 in /  0.0 mm
19:17 46.4 °F /  8.0 °C 37.2 °F /  2.9 °C 30.1 in /  1018.8 hPa Calm     70 % 0 in /  0.0 mm
19:22 46.2 °F /  7.9 °C 36.7 °F /  2.6 °C 30.1 in /  1018.8 hPa Calm     69 % 0 in /  0.0 mm
19:27 46.2 °F /  7.9 °C 37 °F /  2.8 °C 30.1 in /  1018.5 hPa Calm     70 % 0 in /  0.0 mm
19:32 46 °F /  7.8 °C 37.2 °F /  2.9 °C 30.1 in /  1018.5 hPa Calm     71 % 0 in /  0.0 mm
19:37 45.9 °F /  7.7 °C 37.4 °F /  3.0 °C 30.1 in /  1018.5 hPa Calm     72 % 0 in /  0.0 mm
19:42 45.7 °F /  7.6 °C 36.9 °F /  2.7 °C 30.1 in /  1018.5 hPa Calm     71 % 0 in /  0.0 mm
19:47 45.3 °F /  7.4 °C 36.9 °F /  2.7 °C 30.1 in /  1018.5 hPa Calm     72 % 0 in /  0.0 mm
19:52 44.8 °F /  7.1 °C 36.3 °F /  2.4 °C 30.1 in /  1018.5 hPa Calm     72 % 0 in /  0.0 mm
19:57 44.6 °F /  7.0 °C 37.2 °F /  2.9 °C 30.1 in /  1018.2 hPa Calm     75 % 0 in /  0.0 mm
20:02 44.2 °F /  6.8 °C 36.9 °F /  2.7 °C 30.1 in /  1018.2 hPa Calm     75 % 0 in /  0.0 mm
20:07 44.4 °F /  6.9 °C 37.4 °F /  3.0 °C 30.1 in /  1018.2 hPa Calm     76 % 0 in /  0.0 mm
20:12 44.4 °F /  6.9 °C 36.7 °F /  2.6 °C 30.1 in /  1018.2 hPa Calm     74 % 0 in /  0.0 mm
20:17 44.4 °F /  6.9 °C 36.7 °F /  2.6 °C 30.1 in /  1017.8 hPa Calm     74 % 0 in /  0.0 mm
20:22 44.4 °F /  6.9 °C 37 °F /  2.8 °C 30.1 in /  1017.8 hPa Calm     75 % 0 in /  0.0 mm
20:27 44.4 °F /  6.9 °C 36.7 °F /  2.6 °C 30.1 in /  1017.8 hPa Calm     74 % 0 in /  0.0 mm
20:32 44.4 °F /  6.9 °C 37 °F /  2.8 °C 30.1 in /  1017.8 hPa Calm     75 % 0 in /  0.0 mm
20:37 44.4 °F /  6.9 °C 37 °F /  2.8 °C 30.1 in /  1017.8 hPa Calm     75 % 0 in /  0.0 mm
20:42 44.1 °F /  6.7 °C 37.6 °F /  3.1 °C 30.1 in /  1017.8 hPa Calm     78 % 0 in /  0.0 mm
20:47 43.7 °F /  6.5 °C 38.3 °F /  3.5 °C 30.1 in /  1017.8 hPa Calm     81 % 0 in /  0.0 mm
20:52 43.5 °F /  6.4 °C 37.4 °F /  3.0 °C 30.1 in /  1017.8 hPa Calm     79 % 0 in /  0.0 mm
20:57 44.1 °F /  6.7 °C 37.4 °F /  3.0 °C 30.1 in /  1017.5 hPa Calm     77 % 0 in /  0.0 mm
21:02 44.1 °F /  6.7 °C 38.3 °F /  3.5 °C 30.1 in /  1017.8 hPa Calm     80 % 0 in /  0.0 mm
21:07 43.3 °F /  6.3 °C 37.9 °F /  3.3 °C 30.1 in /  1017.5 hPa Calm     81 % 0 in /  0.0 mm
21:12 43.3 °F /  6.3 °C 37.6 °F /  3.1 °C 30.1 in /  1017.5 hPa Calm     80 % 0 in /  0.0 mm
21:17 43.3 °F /  6.3 °C 37.2 °F /  2.9 °C 30.1 in /  1017.5 hPa Calm     79 % 0 in /  0.0 mm
21:22 43.3 °F /  6.3 °C 36.9 °F /  2.7 °C 30 in /  1017.2 hPa ENE 2 mph /  3.2 km/h   78 % 0 in /  0.0 mm
21:27 43.5 °F /  6.4 °C 37 °F /  2.8 °C 30 in /  1017.2 hPa ENE 1 mph /  1.6 km/h 3 mph /  4.8 km/h 78 % 0 in /  0.0 mm
21:32 43.5 °F /  6.4 °C 37.8 °F /  3.2 °C 30 in /  1017.2 hPa Calm   3 mph /  4.8 km/h 80 % 0 in /  0.0 mm
21:37 43.2 °F /  6.2 °C 37.4 °F /  3.0 °C 30 in /  1017.2 hPa NNE 1 mph /  1.6 km/h 3 mph /  4.8 km/h 80 % 0 in /  0.0 mm
21:42 43.3 °F /  6.3 °C 37.2 °F /  2.9 °C 30 in /  1017.2 hPa Calm   1 mph /  1.6 km/h 79 % 0 in /  0.0 mm
21:47 43.3 °F /  6.3 °C 36.7 °F /  2.6 °C 30 in /  1017.2 hPa Calm   1 mph /  1.6 km/h 77 % 0 in /  0.0 mm
21:52 43.3 °F /  6.3 °C 36.7 °F /  2.6 °C 30 in /  1017.2 hPa Calm   1 mph /  1.6 km/h 77 % 0 in /  0.0 mm
22:02 43.2 °F /  6.2 °C 37.4 °F /  3.0 °C 30 in /  1017.2 hPa Calm   1 mph /  1.6 km/h 80 % 0 in /  0.0 mm
22:07 43 °F /  6.1 °C 37.2 °F /  2.9 °C 30 in /  1016.8 hPa North 1 mph /  1.6 km/h 1 mph /  1.6 km/h 80 % 0 in /  0.0 mm
22:12 43 °F /  6.1 °C 37.2 °F /  2.9 °C 30 in /  1016.8 hPa Calm   1 mph /  1.6 km/h 80 % 0 in /  0.0 mm
22:17 43 °F /  6.1 °C 36.9 °F /  2.7 °C 30 in /  1016.8 hPa Calm   1 mph /  1.6 km/h 79 % 0 in /  0.0 mm
22:22 43.2 °F /  6.2 °C 36.7 °F /  2.6 °C 30 in /  1016.8 hPa Calm   1 mph /  1.6 km/h 78 % 0 in /  0.0 mm
22:27 43.3 °F /  6.3 °C 36.7 °F /  2.6 °C 30 in /  1016.5 hPa Calm   1 mph /  1.6 km/h 77 % 0 in /  0.0 mm
22:32 43.3 °F /  6.3 °C 36.9 °F /  2.7 °C 30 in /  1016.5 hPa Calm   1 mph /  1.6 km/h 78 % 0 in /  0.0 mm
22:42 43 °F /  6.1 °C 36.9 °F /  2.7 °C 30 in /  1016.5 hPa North 1 mph /  1.6 km/h 1 mph /  1.6 km/h 79 % 0 in /  0.0 mm
22:47 42.8 °F /  6.0 °C 36.7 °F /  2.6 °C 30 in /  1016.5 hPa NNW 1 mph /  1.6 km/h 1 mph /  1.6 km/h 79 % 0 in /  0.0 mm
22:52 42.6 °F /  5.9 °C 36.5 °F /  2.5 °C 30 in /  1016.1 hPa Calm   1 mph /  1.6 km/h 79 % 0 in /  0.0 mm
22:57 43 °F /  6.1 °C 36.3 °F /  2.4 °C 30 in /  1016.1 hPa Calm   1 mph /  1.6 km/h 77 % 0 in /  0.0 mm
23:02 43.3 °F /  6.3 °C 36.3 °F /  2.4 °C 30 in /  1015.8 hPa Calm   1 mph /  1.6 km/h 76 % 0 in /  0.0 mm
23:07 43.3 °F /  6.3 °C 36.3 °F /  2.4 °C 30 in /  1015.8 hPa Calm   1 mph /  1.6 km/h 76 % 0 in /  0.0 mm
23:12 43 °F /  6.1 °C 36.9 °F /  2.7 °C 30 in /  1015.8 hPa Calm   1 mph /  1.6 km/h 79 % 0 in /  0.0 mm
23:22 42.6 °F /  5.9 °C 36.5 °F /  2.5 °C 30 in /  1015.8 hPa NNE 1 mph /  1.6 km/h 2 mph /  3.2 km/h 79 % 0 in /  0.0 mm
23:27 43 °F /  6.1 °C 36.7 °F /  2.6 °C 30 in /  1015.5 hPa Calm   2 mph /  3.2 km/h 78 % 0 in /  0.0 mm
23:32 43 °F /  6.1 °C 36.7 °F /  2.6 °C 30 in /  1015.8 hPa Calm   2 mph /  3.2 km/h 78 % 0 in /  0.0 mm
23:37 42.6 °F /  5.9 °C 36.3 °F /  2.4 °C 30 in /  1015.5 hPa Calm   2 mph /  3.2 km/h 78 % 0 in /  0.0 mm
23:42 42.8 °F /  6.0 °C 36.5 °F /  2.5 °C 30 in /  1015.5 hPa Calm   1 mph /  1.6 km/h 78 % 0 in /  0.0 mm
23:47 42.6 °F /  5.9 °C 36.9 °F /  2.7 °C 30 in /  1015.5 hPa WNW 1 mph /  1.6 km/h 1 mph /  1.6 km/h 80 % 0 in /  0.0 mm
23:52 42.4 °F /  5.8 °C 36.7 °F /  2.6 °C 30 in /  1015.5 hPa NW 1 mph /  1.6 km/h 1 mph /  1.6 km/h 80 % 0 in /  0.0 mm
23:57 42.6 °F /  5.9 °C 36.9 °F /  2.7 °C 30 in /  1015.5 hPa NNW 1 mph /  1.6 km/h 1 mph /  1.6 km/h 80 % 0 in /  0.0 mm
Meteo18
Compliments of Weather Underground - 4 mb

Script developed by  Jim McMurry - jmcmurry@mwt.net Adapted for the template by  Wim van der Kuil - Leuven-Template.eu

You find our weather info also at:

European Weather Network

Weather Underground

Equipment we use:

Weather-station
Davis Vue

Weather-program
Meteohub

Weather-server
Raspberry PI 2 B+

Provider
1 and 1

Davis Vue

Meteohub

Raspberry PI 2 B+

1 and 1